Time;durP1;ratioP1;P1;durP2;ratioP2;P2;SDS_P1;SDS_P2;PMS_P1;PMS_P2;Temp;Humidity;BMP_temperature;BMP_pressure;BME280_temperature;BME280_humidity;BME280_pressure;Samples;Min_cycle;Max_cycle;Signal;HPM_P1;HPM_P2
2021/01/08 00:03:19;;;;;;;;;;;0.80;99.90;;;-0.20;79.76;95319.81;10494152;28;1935;-83
2021/01/08 00:08:21;;;;;;;;;;;0.90;99.90;;;-0.15;80.63;95314.69;10503088;28;1960;-82
2021/01/08 00:13:23;;;;;;;;;;;0.90;99.90;;;-0.16;80.55;95315.72;10470658;28;1641;-81
2021/01/08 00:18:25;;;;;;;;;;;0.90;99.90;;;-0.14;80.73;95308.38;10485694;28;1732;-82
2021/01/08 00:23:27;;;;;;;;;;;1.00;99.90;;;-0.16;80.31;95307.81;10487588;28;1992;-83
2021/01/08 00:28:29;;;;;;;;;;;2.10;99.90;;;-0.14;80.71;95299.66;10436498;28;2068;-82
2021/01/08 00:33:30;;;;;;;;;;;1.00;99.90;;;-0.13;80.75;95302.06;10449997;28;1915;-83
2021/01/08 00:38:32;;;;;;;;;;;1.40;99.90;;;-0.19;79.98;95302.97;10462026;28;1696;-83
2021/01/08 00:43:34;;;;;;;;;;;1.00;99.90;;;-0.20;80.33;95297.88;10451529;28;1894;-83
2021/01/08 00:48:36;;;;;;;;;;;0.90;99.90;;;-0.18;81.22;95301.94;10453025;28;1771;-80
2021/01/08 00:53:37;;;;;;;;;;;1.10;99.90;;;-0.22;79.82;95303.38;10458796;28;1990;-79
2021/01/08 00:58:39;;;;;;;;;;;0.90;99.90;;;-0.22;79.65;95298.09;10451180;28;1748;-80
2021/01/08 01:03:42;;;;;;;;;;;0.90;99.90;;;-0.24;80.21;95300.16;10442001;28;2049;-82
2021/01/08 01:08:43;;;;;;;;;;;2.00;99.90;;;-0.27;80.16;95305.88;10467296;28;1947;-81
2021/01/08 01:13:46;;;;;;;;;;;2.30;99.90;;;-0.30;80.22;95308.94;10487589;28;2031;-83
2021/01/08 01:18:47;;;;;;;;;;;0.80;99.90;;;-0.31;80.66;95310.78;10461937;28;1684;-82
2021/01/08 01:23:49;;;;;;;;;;;0.80;99.90;;;-0.32;80.85;95318.91;10484080;28;1977;-83
2021/01/08 01:28:51;;;;;;;;;;;0.80;99.90;;;-0.35;79.71;95316.72;10476948;28;1913;-79
2021/01/08 01:33:53;;;;;;;;;;;0.80;99.90;;;-0.32;80.44;95319.75;10478348;28;2041;-82
2021/01/08 01:38:54;;;;;;;;;;;0.70;99.90;;;-0.36;81.01;95315.09;10461650;28;1943;-81
2021/01/08 01:43:56;;;;;;;;;;;0.80;99.90;;;-0.33;80.63;95327.84;10460242;28;2039;-83
2021/01/08 01:48:58;;;;;;;;;;;0.70;99.90;;;-0.33;81.24;95328.66;10477621;28;2030;-83
2021/01/08 01:54:00;;;;;;;;;;;1.50;99.90;;;-0.39;80.09;95328.72;10456630;28;2007;-82
2021/01/08 01:59:05;;;;;;;;;;;0.70;99.90;;;-0.38;80.93;95335.63;10478340;28;2038;-82
2021/01/08 02:04:06;;;;;;;;;;;0.70;99.90;;;-0.37;80.60;95326.69;10455796;28;2061;-80
2021/01/08 02:09:08;;;;;;;;;;;0.70;99.90;;;-0.39;80.95;95328.72;10482051;28;1838;-84
2021/01/08 02:14:10;;;;;;;;;;;1.10;99.90;;;-0.39;80.61;95328.72;10478755;28;1283;-84
2021/01/08 02:19:12;;;;;;;;;;;0.70;99.90;;;-0.37;81.43;95331.97;10502895;28;1306;-83
2021/01/08 02:24:13;;;;;;;;;;;0.80;99.90;;;-0.36;81.12;95323.84;10494968;28;1982;-81
2021/01/08 02:29:15;;;;;;;;;;;0.70;99.90;;;-0.36;80.89;95323.03;10467120;28;2148;-82
2021/01/08 02:34:17;;;;;;;;;;;0.80;99.90;;;-0.40;80.23;95325.28;10474051;28;1660;-82
2021/01/08 02:39:19;;;;;;;;;;;1.80;99.90;;;-0.39;81.30;95326.09;10498648;28;2030;-83
2021/01/08 02:44:21;;;;;;;;;;;2.70;99.90;;;-0.42;80.72;95326.53;10454955;28;2141;-84
2021/01/08 02:49:23;;;;;;;;;;;0.70;99.90;;;-0.43;80.90;95314.34;10473507;28;2171;-82
2021/01/08 02:54:24;;;;;;;;;;;0.70;99.90;;;-0.46;80.66;95320.84;10442477;28;1842;-81
2021/01/08 02:59:26;;;;;;;;;;;0.60;99.90;;;-0.48;81.15;95319.47;10480943;28;2073;-82
2021/01/08 03:04:28;;;;;;;;;;;0.70;99.90;;;-0.53;80.51;95314.03;10470726;28;2118;-83
2021/01/08 03:09:30;;;;;;;;;;;0.70;99.90;;;-0.53;80.56;95320.09;10468062;28;1874;-81
2021/01/08 03:14:32;;;;;;;;;;;1.90;99.90;;;-0.58;81.40;95320.75;10454300;28;2141;-82
2021/01/08 03:19:33;;;;;;;;;;;1.30;99.90;;;-0.55;81.42;95322.16;10470786;28;2064;-83
2021/01/08 03:24:35;;;;;;;;;;;0.50;99.90;;;-0.57;81.54;95321.56;10467188;28;2092;-80
2021/01/08 03:29:37;;;;;;;;;;;2.10;99.90;;;-0.61;80.92;95315.91;10473792;28;1877;-84
2021/01/08 03:34:39;;;;;;;;;;;0.50;99.90;;;-0.65;81.13;95317.34;10469479;28;2199;-83
2021/01/08 03:39:41;;;;;;;;;;;0.40;99.90;;;-0.68;81.15;95312.50;10468371;28;2166;-79
2021/01/08 03:44:43;;;;;;;;;;;0.60;99.90;;;-0.68;81.71;95324.91;10475128;28;2065;-80
2021/01/08 03:49:45;;;;;;;;;;;0.40;99.90;;;-0.64;81.69;95321.59;10473967;28;2081;-83
2021/01/08 03:54:46;;;;;;;;;;;0.40;99.90;;;-0.68;81.54;95315.16;10481333;28;1780;-81
2021/01/08 03:59:48;;;;;;;;;;;1.20;99.90;;;-0.67;81.79;95313.31;10465942;28;2102;-81
2021/01/08 04:04:50;;;;;;;;;;;0.40;99.90;;;-0.72;81.17;95307.88;10470467;28;2095;-82
2021/01/08 04:09:52;;;;;;;;;;;0.50;99.90;;;-0.73;81.09;95308.91;10478664;28;1952;-80
2021/01/08 04:45:50;;;;;;;;;;;0.30;99.90;;;-0.74;83.01;95313.38;10478964;28;1911;-83
2021/01/08 04:50:52;;;;;;;;;;;0.40;99.90;;;-0.85;82.73;95324.59;10482160;28;2104;-84
2021/01/08 04:55:54;;;;;;;;;;;0.30;99.90;;;-0.80;83.35;95316.84;10441176;28;1558;-81
2021/01/08 05:00:56;;;;;;;;;;;0.30;99.90;;;-0.84;82.27;95320.94;10450972;28;2130;-79
2021/01/08 05:05:58;;;;;;;;;;;0.30;99.90;;;-0.90;82.27;95324.44;10470002;28;1924;-84
2021/01/08 05:11:00;;;;;;;;;;;0.80;99.90;;;-0.88;82.18;95325.03;10487920;28;1867;-81
2021/01/08 05:16:03;;;;;;;;;;;1.90;99.90;;;-0.86;82.70;95320.34;10487559;28;2054;-79
2021/01/08 05:21:05;;;;;;;;;;;0.20;99.90;;;-0.84;82.17;95311.19;10483152;28;1922;-81
2021/01/08 05:26:07;;;;;;;;;;;0.30;99.90;;;-0.82;83.13;95308.34;10492485;28;2466;-81
2021/01/08 05:31:08;;;;;;;;;;;0.30;99.90;;;-0.82;81.91;95305.72;10492613;28;2098;-83
2021/01/08 05:36:10;;;;;;;;;;;1.80;99.90;;;-0.78;82.47;95317.44;10487908;28;2097;-82
2021/01/08 05:41:12;;;;;;;;;;;0.30;99.90;;;-0.79;81.96;95322.94;10464917;28;2092;-83
2021/01/08 05:46:14;;;;;;;;;;;0.50;99.90;;;-0.81;82.14;95331.09;10481812;28;2057;-83
2021/01/08 05:51:16;;;;;;;;;;;0.30;99.90;;;-0.75;82.52;95326.78;10474320;28;1918;-83
2021/01/08 05:56:17;;;;;;;;;;;0.30;99.90;;;-0.74;82.56;95336.31;10456392;28;1742;-82
2021/01/08 06:01:19;;;;;;;;;;;0.40;99.90;;;-0.73;82.56;95338.72;10464648;28;2125;-83
2021/01/08 06:06:21;;;;;;;;;;;0.40;99.90;;;-0.74;82.10;95331.84;10455120;28;2135;-83
2021/01/08 06:11:23;;;;;;;;;;;0.40;99.90;;;-0.77;81.97;95337.53;10470366;28;2071;-84
2021/01/08 06:16:24;;;;;;;;;;;0.40;99.90;;;-0.75;82.24;95338.16;10457413;28;1915;-83
2021/01/08 06:21:31;;;;;;;;;;;0.40;99.90;;;-0.75;81.94;95339.97;10443979;28;1890;-83
2021/01/08 06:26:33;;;;;;;;;;;1.00;99.90;;;-0.76;82.23;95338.34;10458874;28;2141;-82
2021/01/08 06:31:35;;;;;;;;;;;1.50;99.90;;;-0.82;82.26;95340.03;10458951;28;2087;-81
2021/01/08 06:36:38;;;;;;;;;;;0.50;99.90;;;-0.79;82.31;95344.06;10483863;28;2252;-83
2021/01/08 06:41:40;;;;;;;;;;;1.00;99.90;;;-0.75;82.67;95348.69;10480127;28;2006;-84
2021/01/08 06:46:42;;;;;;;;;;;0.30;99.90;;;-0.73;82.00;95344.00;10456617;28;2138;-82
2021/01/08 06:51:45;;;;;;;;;;;1.20;99.90;;;-0.71;82.59;95347.22;10490989;28;2119;-81
2021/01/08 06:56:46;;;;;;;;;;;0.40;99.90;;;-0.71;81.96;95351.72;10469638;28;2265;-83
2021/01/08 07:01:52;;;;;;;;;;;0.40;99.90;;;-0.69;82.11;95366.31;10481843;28;1926;-84
2021/01/08 07:06:54;;;;;;;;;;;1.10;99.90;;;-0.68;82.04;95362.66;10510788;28;2094;-82
2021/01/08 07:11:56;;;;;;;;;;;1.80;99.90;;;-0.64;81.79;95366.47;10497225;28;2107;-82
2021/01/08 07:16:58;;;;;;;;;;;1.50;99.90;;;-0.60;82.73;95365.03;10482837;28;1380;-85
2021/01/08 07:22:00;;;;;;;;;;;0.40;99.90;;;-0.62;82.57;95371.56;10488601;28;2070;-86
2021/01/08 07:27:04;;;;;;;;;;;1.60;99.90;;;-0.57;82.09;95380.47;10479022;28;1284;-81
2021/01/08 07:32:06;;;;;;;;;;;0.50;99.90;;;-0.54;82.36;95384.50;10487770;28;1742;-81
2021/01/08 07:37:08;;;;;;;;;;;0.60;99.90;;;-0.55;82.24;95386.34;10465147;28;2376;-82
2021/01/08 07:42:09;;;;;;;;;;;0.50;99.90;;;-0.45;81.80;95393.75;10468369;28;1937;-85
2021/01/08 07:47:11;;;;;;;;;;;0.60;99.90;;;-0.39;81.51;95392.91;10449636;28;2164;-84
2021/01/08 07:52:13;;;;;;;;;;;0.60;99.90;;;-0.40;80.75;95401.06;10470133;28;2111;-83
2021/01/08 07:57:15;;;;;;;;;;;0.70;99.90;;;-0.45;80.85;95408.81;10456607;28;2150;-85
2021/01/08 08:02:17;;;;;;;;;;;1.40;99.90;;;-0.46;81.55;95407.19;10485314;28;2065;-85
2021/01/08 08:07:19;;;;;;;;;;;0.60;99.90;;;-0.35;79.94;95409.16;10471939;28;1854;-84
2021/01/08 08:12:21;;;;;;;;;;;0.70;99.90;;;-0.18;80.08;95415.53;10476639;28;1927;-87
2021/01/08 08:17:22;;;;;;;;;;;0.90;99.90;;;-0.03;79.46;95421.28;10488693;28;1819;-86
2021/01/08 08:22:25;;;;;;;;;;;1.00;99.90;;;0.07;78.49;95430.59;10484769;28;2132;-84
2021/01/08 08:27:26;;;;;;;;;;;2.80;99.90;;;0.20;78.16;95426.00;10465700;28;1946;-84
2021/01/08 08:32:28;;;;;;;;;;;1.30;99.90;;;0.42;78.03;95431.66;10453276;28;1754;-86
2021/01/08 08:37:30;;;;;;;;;;;1.30;99.90;;;0.58;76.35;95425.00;10448448;28;2074;-80
2021/01/08 08:42:32;;;;;;;;;;;3.60;99.90;;;0.70;76.12;95427.72;10478302;28;1985;-80
2021/01/08 08:47:34;;;;;;;;;;;1.60;99.90;;;0.78;75.60;95422.16;10453462;28;1894;-81
2021/01/08 08:52:47;;;;;;;;;;;1.70;99.90;;;0.93;74.76;95425.22;10430935;28;2169;-81
2021/01/08 08:57:49;;;;;;;;;;;1.80;99.90;;;0.89;74.26;95421.41;10443082;28;2051;-82
2021/01/08 09:02:51;;;;;;;;;;;1.90;99.90;;;0.73;74.08;95422.00;10457929;28;2066;-81
2021/01/08 09:07:53;;;;;;;;;;;2.30;99.90;;;0.95;74.75;95425.00;10471749;28;2065;-80
2021/01/08 09:12:55;;;;;;;;;;;1.90;99.90;;;0.87;74.35;95423.44;10456686;28;2092;-83
2021/01/08 09:17:57;;;;;;;;;;;1.90;99.90;;;0.79;74.34;95421.13;10496319;28;2093;-83
2021/01/08 09:23:03;;;;;;;;;;;1.90;99.90;;;1.14;73.63;95425.78;10471999;28;1954;-83
2021/01/08 09:28:05;;;;;;;;;;;3.20;99.90;;;1.11;73.10;95436.81;10487481;28;2070;-83
2021/01/08 09:33:07;;;;;;;;;;;3.10;99.90;;;1.15;74.17;95425.56;10470530;28;2450;-82
2021/01/08 09:38:08;;;;;;;;;;;2.90;99.90;;;1.18;72.56;95432.25;10471441;28;2304;-84
2021/01/08 09:43:10;;;;;;;;;;;3.70;99.90;;;1.60;71.89;95427.84;10470297;28;2076;-83
2021/01/08 09:48:12;;;;;;;;;;;3.30;99.90;;;1.46;71.90;95437.78;10493568;28;2250;-82
2021/01/08 09:53:14;;;;;;;;;;;3.90;99.90;;;1.63;71.82;95433.47;10486440;28;2070;-81
2021/01/08 09:58:16;;;;;;;;;;;2.50;99.90;;;1.61;72.11;95429.44;10483551;28;1831;-82
2021/01/08 10:03:17;;;;;;;;;;;2.60;99.90;;;1.80;70.21;95430.19;10485041;28;2088;-83
2021/01/08 10:08:20;;;;;;;;;;;3.30;99.90;;;1.71;71.87;95431.53;10481871;28;2065;-81
2021/01/08 10:13:22;;;;;;;;;;;2.80;99.90;;;2.02;70.51;95430.44;10475002;28;2265;-83
2021/01/08 10:18:24;;;;;;;;;;;2.90;99.90;;;1.92;69.87;95431.03;10463411;28;2176;-83
2021/01/08 10:23:26;;;;;;;;;;;3.70;99.90;;;1.81;69.88;95429.94;10457460;28;1906;-85
2021/01/08 10:28:28;;;;;;;;;;;3.30;99.90;;;2.00;69.00;95433.34;10471482;28;2232;-85
2021/01/08 10:33:30;;;;;;;;;;;3.00;99.90;;;1.88;68.90;95441.25;10477207;28;2300;-84
2021/01/08 10:38:33;;;;;;;;;;;3.40;99.90;;;1.93;68.40;95429.19;10480936;28;1863;-86
2021/01/08 10:43:35;;;;;;;;;;;4.50;99.90;;;2.07;68.73;95422.63;10476897;28;2221;-84
2021/01/08 10:48:37;;;;;;;;;;;3.10;99.90;;;2.16;68.45;95411.47;10483592;28;2465;-86
2021/01/08 10:53:39;;;;;;;;;;;3.10;99.90;;;2.02;68.17;95410.03;10464830;28;2442;-84
2021/01/08 10:58:41;;;;;;;;;;;3.10;99.90;;;1.95;67.72;95409.34;10453793;28;1951;-85
2021/01/08 11:03:43;;;;;;;;;;;4.30;99.90;;;2.02;68.11;95407.41;10479907;28;1976;-84
2021/01/08 11:08:45;;;;;;;;;;;3.10;99.90;;;2.17;67.31;95401.66;10468097;28;2034;-83
2021/01/08 11:13:48;;;;;;;;;;;3.10;99.90;;;2.27;67.16;95401.88;10484079;28;2131;-87
2021/01/08 11:18:50;;;;;;;;;;;3.20;99.90;;;2.45;65.65;95390.34;10463764;28;2099;-84
2021/01/08 11:23:52;;;;;;;;;;;4.20;99.90;;;2.38;67.01;95387.81;10466694;28;1926;-87
2021/01/08 11:28:53;;;;;;;;;;;4.00;99.90;;;2.60;66.00;95380.06;10448545;28;2079;-85
2021/01/08 11:33:55;;;;;;;;;;;3.70;99.90;;;2.63;64.93;95386.75;10459895;28;2456;-83
2021/01/08 11:38:57;;;;;;;;;;;4.20;98.60;;;2.76;65.08;95388.34;10473908;28;1987;-87
2021/01/08 11:43:59;;;;;;;;;;;5.30;99.60;;;2.72;64.83;95383.50;10462137;28;2046;-83
2021/01/08 11:49:03;;;;;;;;;;;5.40;98.80;;;2.33;63.17;95389.53;10468164;28;1919;-83
2021/01/08 11:54:05;;;;;;;;;;;4.30;95.50;;;2.15;63.74;95393.91;10456374;28;1673;-84
2021/01/08 11:59:07;;;;;;;;;;;3.70;95.40;;;2.27;63.64;95385.16;10473271;28;1605;-85
2021/01/08 12:04:10;;;;;;;;;;;3.20;95.40;;;1.99;65.83;95384.00;10450440;28;2291;-85
2021/01/08 12:09:12;;;;;;;;;;;3.10;95.40;;;2.32;64.64;95382.63;10463471;28;1968;-86
2021/01/08 12:14:14;;;;;;;;;;;3.20;95.70;;;2.28;64.96;95386.78;10462293;28;1907;-84
2021/01/08 12:19:17;;;;;;;;;;;3.20;95.60;;;1.88;66.42;95382.13;10457230;28;1956;-84
2021/01/08 12:24:19;;;;;;;;;;;3.20;95.90;;;2.02;66.43;95385.38;10456329;28;2244;-84
2021/01/08 12:29:21;;;;;;;;;;;3.00;96.90;;;1.80;65.67;95395.75;10457011;28;2066;-85
2021/01/08 12:34:23;;;;;;;;;;;2.90;95.70;;;1.68;66.48;95392.25;10457315;28;2134;-85
2021/01/08 12:39:25;;;;;;;;;;;2.70;96.60;;;1.47;67.58;95399.69;10478349;28;1875;-86
2021/01/08 12:44:26;;;;;;;;;;;2.70;97.80;;;1.42;68.72;95388.16;10464699;28;2066;-83
2021/01/08 12:49:28;;;;;;;;;;;4.80;99.20;;;1.42;68.45;95396.91;10441017;28;1863;-85
2021/01/08 12:54:30;;;;;;;;;;;2.50;98.90;;;1.48;67.82;95393.34;10459946;28;2127;-84
2021/01/08 12:59:33;;;;;;;;;;;2.50;98.50;;;1.65;67.84;95392.69;10458860;28;1949;-80
2021/01/08 13:04:35;;;;;;;;;;;2.60;99.00;;;1.69;68.96;95407.09;10470072;28;1909;-83
2021/01/08 13:09:38;;;;;;;;;;;3.70;99.90;;;1.50;68.11;95395.78;10493791;28;1904;-83
2021/01/08 13:14:40;;;;;;;;;;;3.60;99.50;;;1.40;69.58;95396.31;10468566;28;1952;-83
2021/01/08 13:19:41;;;;;;;;;;;3.30;99.90;;;1.22;69.67;95399.81;10456069;28;1900;-84
2021/01/08 13:24:44;;;;;;;;;;;3.30;99.90;;;1.25;69.74;95403.84;10485395;28;1977;-84
2021/01/08 13:29:45;;;;;;;;;;;2.30;99.90;;;1.21;71.62;95402.66;10497841;28;1641;-83
2021/01/08 13:34:48;;;;;;;;;;;2.50;99.90;;;1.27;71.50;95409.72;10502562;28;1657;-81
2021/01/08 13:39:50;;;;;;;;;;;2.30;99.90;;;1.59;70.90;95405.00;10481312;28;2011;-84
2021/01/08 13:44:52;;;;;;;;;;;2.50;99.90;;;1.40;71.73;95420.16;10493508;28;1914;-86
2021/01/08 13:49:54;;;;;;;;;;;2.50;99.90;;;1.44;71.37;95418.66;10504318;28;1912;-85
2021/01/08 13:54:56;;;;;;;;;;;3.20;99.90;;;1.17;70.74;95417.41;10501075;28;2046;-86
2021/01/08 13:59:58;;;;;;;;;;;2.30;99.90;;;1.16;71.65;95426.38;10475887;28;1852;-83
2021/01/08 14:04:59;;;;;;;;;;;2.40;99.90;;;1.02;70.78;95431.03;10479165;28;2039;-83
2021/01/08 14:10:04;;;;;;;;;;;2.10;99.90;;;1.15;70.96;95430.88;10470000;28;1962;-83
2021/01/08 14:15:06;;;;;;;;;;;2.70;99.90;;;1.10;71.60;95432.56;10442085;28;1947;-86
2021/01/08 14:20:08;;;;;;;;;;;2.10;99.90;;;1.06;70.77;95438.28;10475500;28;1946;-84
2021/01/08 14:25:10;;;;;;;;;;;3.00;99.90;;;1.03;72.06;95446.69;10452903;28;2106;-87
2021/01/08 14:30:12;;;;;;;;;;;2.10;99.90;;;1.02;70.06;95439.78;10468684;28;1809;-86
2021/01/08 14:35:14;;;;;;;;;;;2.10;99.90;;;0.86;72.58;95448.31;10465079;28;1946;-86
2021/01/08 14:40:16;;;;;;;;;;;1.90;99.90;;;0.66;70.89;95443.22;10458419;28;1789;-86
2021/01/08 14:45:18;;;;;;;;;;;1.80;99.90;;;0.71;72.98;95445.22;10443392;28;1883;-84
2021/01/08 14:50:20;;;;;;;;;;;1.80;99.90;;;0.76;73.13;95450.66;10451088;28;2222;-87
2021/01/08 14:55:21;;;;;;;;;;;1.80;99.90;;;0.80;72.44;95451.84;10461444;28;1727;-85
2021/01/08 15:00:23;;;;;;;;;;;1.80;99.90;;;0.66;71.53;95453.81;10473126;28;2076;-86
2021/01/08 15:05:25;;;;;;;;;;;1.80;99.90;;;0.38;72.87;95461.41;10479530;28;1890;-85
2021/01/08 15:10:27;;;;;;;;;;;1.50;99.90;;;0.35;73.93;95473.22;10491149;28;1952;-83
2021/01/08 15:15:29;;;;;;;;;;;1.60;99.90;;;0.22;73.73;95473.34;10488033;28;2026;-85
2021/01/08 15:20:30;;;;;;;;;;;2.60;99.90;;;0.14;73.69;95471.78;10466129;28;2027;-84
2021/01/08 15:25:34;;;;;;;;;;;1.30;99.90;;;0.13;74.35;95477.28;10467506;28;2288;-86
2021/01/08 15:30:35;;;;;;;;;;;2.90;99.90;;;0.12;73.97;95478.28;10450284;28;1986;-84
2021/01/08 15:35:37;;;;;;;;;;;1.20;99.90;;;0.16;74.00;95476.84;10477271;28;1840;-86
2021/01/08 15:40:39;;;;;;;;;;;1.80;99.90;;;0.08;74.61;95477.13;10478037;28;1965;-86
2021/01/08 15:45:41;;;;;;;;;;;3.40;99.90;;;0.11;74.43;95487.25;10461904;28;1915;-85
2021/01/08 15:50:43;;;;;;;;;;;1.20;99.90;;;0.13;74.79;95490.50;10441650;28;1766;-85
2021/01/08 15:55:46;;;;;;;;;;;1.20;99.90;;;0.10;74.32;95490.91;10475972;28;1975;-88
2021/01/08 16:00:50;;;;;;;;;;;1.10;99.90;;;0.12;74.03;95499.44;10451886;28;2297;-87
2021/01/08 16:05:52;;;;;;;;;;;2.30;99.90;;;0.07;74.86;95496.66;10457043;28;1796;-85
2021/01/08 16:10:54;;;;;;;;;;;1.20;99.90;;;0.01;73.96;95503.59;10455230;28;1880;-86
2021/01/08 16:15:55;;;;;;;;;;;2.10;99.90;;;-0.09;74.43;95501.41;10454551;28;1920;-84
2021/01/08 16:20:57;;;;;;;;;;;1.00;99.90;;;-0.08;74.42;95515.44;10476072;28;2015;-86
2021/01/08 16:26:00;;;;;;;;;;;1.00;99.90;;;-0.12;74.03;95499.22;10477239;28;1956;-87
2021/01/08 16:31:04;;;;;;;;;;;1.20;99.90;;;-0.11;74.53;95500.81;10471845;28;1918;-86
2021/01/08 16:36:07;;;;;;;;;;;1.90;99.90;;;-0.16;75.43;95507.78;10487984;28;2022;-87
2021/01/08 16:41:09;;;;;;;;;;;2.20;99.90;;;-0.14;75.63;95509.16;10461974;28;2317;-87
2021/01/08 16:46:11;;;;;;;;;;;0.90;99.90;;;-0.18;74.33;95510.63;10487638;28;1282;-86
2021/01/08 16:51:13;;;;;;;;;;;0.90;99.90;;;-0.26;73.98;95518.78;10486128;28;1545;-84
2021/01/08 16:56:14;;;;;;;;;;;1.60;99.90;;;-0.27;74.20;95519.81;10451319;28;1536;-83
2021/01/08 17:01:17;;;;;;;;;;;1.40;99.90;;;-0.28;74.52;95526.13;10478472;28;1882;-84
2021/01/08 17:06:22;;;;;;;;;;;0.80;99.90;;;-0.31;75.35;95532.66;10465197;28;1665;-84
2021/01/08 17:11:25;;;;;;;;;;;2.70;99.90;;;-0.32;74.63;95546.03;10488053;28;1440;-86
2021/01/08 17:16:30;;;;;;;;;;;0.70;99.90;;;-0.33;75.25;95544.44;10476757;28;1646;-84
2021/01/08 17:21:34;;;;;;;;;;;2.30;99.90;;;-0.34;76.11;95553.38;10470728;28;1965;-85
2021/01/08 17:26:36;;;;;;;;;;;0.70;99.90;;;-0.35;76.49;95551.75;10494441;28;1277;-85
2021/01/08 17:31:41;;;;;;;;;;;3.30;99.90;;;-0.36;75.93;95558.88;10465781;28;1325;-87
2021/01/08 17:36:47;;;;;;;;;;;2.10;99.90;;;-0.35;75.54;95570.25;10497432;28;1583;-84
2021/01/08 17:42:09;;;;;;;;;;;1.90;99.90;;;-0.42;76.58;95572.13;10477110;28;1930;-85
2021/01/08 17:47:11;;;;;;;;;;;2.10;99.90;;;-0.47;76.14;95575.38;10476714;28;1877;-85
2021/01/08 17:52:13;;;;;;;;;;;0.60;99.90;;;-0.51;76.20;95576.00;10465059;28;1555;-85
2021/01/08 17:57:16;;;;;;;;;;;0.50;99.90;;;-0.62;76.52;95583.56;10468068;28;1487;-86
2021/01/08 18:02:17;;;;;;;;;;;0.40;99.90;;;-0.71;77.34;95590.06;10490626;28;1955;-85
2021/01/08 18:07:19;;;;;;;;;;;0.40;99.90;;;-0.80;78.44;95596.59;10462673;28;1814;-86
2021/01/08 18:12:28;;;;;;;;;;;2.10;99.90;;;-0.81;79.00;95600.25;10458902;28;1508;-84
2021/01/08 18:17:30;;;;;;;;;;;1.90;99.90;;;-0.97;80.33;95596.22;10476847;28;1639;-85
2021/01/08 18:22:32;;;;;;;;;;;0.30;99.90;;;-1.02;81.41;95603.13;10491388;28;1898;-86
2021/01/08 18:27:34;;;;;;;;;;;1.20;99.90;;;-1.03;81.35;95601.50;10473318;28;1581;-86
2021/01/08 18:32:37;;;;;;;;;;;0.10;99.90;;;-1.00;81.01;95595.84;10447470;28;1603;-87
2021/01/08 18:37:55;;;;;;;;;;;0.10;99.90;;;-0.87;80.25;95595.81;10467151;28;1566;-85
2021/01/08 18:42:57;;;;;;;;;;;0.10;99.90;;;-0.86;80.00;95602.72;10469320;28;1910;-85
2021/01/08 18:48:01;;;;;;;;;;;0.20;99.90;;;-0.91;79.43;95591.94;10444583;28;1488;-85
2021/01/08 18:53:05;;;;;;;;;;;1.80;99.90;;;-0.84;80.59;95605.94;10453769;28;1609;-87
2021/01/08 18:58:07;;;;;;;;;;;0.20;99.90;;;-0.80;80.31;95591.31;10453342;28;1624;-83
2021/01/08 19:03:10;;;;;;;;;;;1.30;99.90;;;-0.79;79.70;95600.88;10454371;28;1899;-86
2021/01/08 19:08:32;;;;;;;;;;;0.30;99.90;;;-0.87;79.74;95598.44;10476215;28;1569;-85
2021/01/08 19:13:34;;;;;;;;;;;0.20;99.90;;;-0.77;80.28;95605.94;10464891;28;1496;-85
2021/01/08 19:18:36;;;;;;;;;;;1.90;99.90;;;-0.90;79.89;95609.41;10473137;28;1347;-85
2021/01/08 19:23:39;;;;;;;;;;;1.30;99.90;;;-0.88;80.22;95610.03;10456715;28;1905;-83
2021/01/08 19:28:45;;;;;;;;;;;1.60;99.90;;;-0.81;80.08;95616.09;10472336;28;1535;-85
2021/01/08 19:33:51;;;;;;;;;;;0.60;99.90;;;-0.75;80.20;95619.75;10490358;28;1550;-86
2021/01/08 19:39:04;;;;;;;;;;;0.30;99.90;;;-0.72;79.23;95619.31;10479499;28;1359;-86
2021/01/08 19:44:06;;;;;;;;;;;0.30;99.90;;;-0.66;80.15;95624.59;10486311;28;1958;-87
2021/01/08 19:49:08;;;;;;;;;;;0.40;99.90;;;-0.65;78.59;95631.47;10476020;28;1437;-86
2021/01/08 19:54:12;;;;;;;;;;;0.40;99.90;;;-0.71;79.83;95631.50;10478151;28;1378;-85
2021/01/08 19:59:16;;;;;;;;;;;1.20;99.90;;;-0.72;79.29;95635.97;10459083;28;1769;-86
2021/01/08 20:04:18;;;;;;;;;;;1.90;99.90;;;-0.75;79.41;95646.13;10470098;28;1950;-87
2021/01/08 20:09:25;;;;;;;;;;;0.30;99.90;;;-0.74;79.97;95648.56;10462300;28;1570;-87
2021/01/08 20:14:29;;;;;;;;;;;0.30;99.90;;;-0.82;79.41;95651.44;10463256;28;1904;-84
2021/01/08 20:19:33;;;;;;;;;;;0.80;99.90;;;-0.83;79.87;95658.53;10456454;28;2321;-82
2021/01/08 20:24:35;;;;;;;;;;;2.20;99.90;;;-0.86;80.45;95661.56;10473214;28;2026;-87
2021/01/08 20:29:39;;;;;;;;;;;0.20;99.90;;;-0.80;80.43;95667.06;10464891;28;1978;-87
2021/01/08 20:34:42;;;;;;;;;;;0.20;99.90;;;-0.87;80.57;95677.63;10449565;28;1773;-86
2021/01/08 20:39:44;;;;;;;;;;;0.50;99.90;;;-0.90;79.67;95685.94;10459856;28;1928;-85
2021/01/08 20:44:46;;;;;;;;;;;0.20;99.90;;;-0.92;80.12;95688.78;10456045;28;1922;-85
2021/01/08 20:49:54;;;;;;;;;;;0.20;99.90;;;-0.86;79.92;95687.16;10450424;28;2027;-83
2021/01/08 20:55:03;;;;;;;;;;;0.40;99.90;;;-0.88;79.45;95694.47;10443791;28;1676;-83
2021/01/08 21:00:06;;;;;;;;;;;0.10;99.90;;;-0.84;79.76;95688.56;10466844;28;2057;-89
2021/01/08 21:05:08;;;;;;;;;;;1.40;99.90;;;-0.81;80.44;95695.28;10471027;28;1987;-88
2021/01/08 21:10:11;;;;;;;;;;;0.20;99.90;;;-0.92;81.38;95698.53;10458772;28;2046;-88
2021/01/08 21:15:13;;;;;;;;;;;0.20;99.90;;;-0.96;81.48;95692.03;10476623;28;1931;-88
2021/01/08 21:20:15;;;;;;;;;;;0.10;99.90;;;-0.98;82.64;95699.34;10474430;28;2060;-87
2021/01/08 21:25:17;;;;;;;;;;;0.00;99.90;;;-0.94;82.58;95697.94;10482744;28;1910;-85
2021/01/08 21:30:19;;;;;;;;;;;0.10;99.90;;;-0.97;82.61;95704.41;10487360;28;1625;-89
2021/01/08 21:35:21;;;;;;;;;;;0.50;99.90;;;-1.01;82.63;95710.31;10470336;28;1482;-89
2021/01/08 21:40:23;;;;;;;;;;;2.40;99.90;;;-0.95;83.33;95699.75;10471757;28;1234;-86
2021/01/08 21:45:25;;;;;;;;;;;2.20;99.90;;;-1.01;81.61;95697.13;10472829;28;1977;-87
2021/01/08 21:50:33;;;;;;;;;;;0.10;99.90;;;-1.03;81.73;95705.22;10468466;28;1235;-86
2021/01/08 21:55:37;;;;;;;;;;;0.30;99.90;;;-1.00;82.02;95699.53;10469885;28;1526;-89
2021/01/08 22:00:39;;;;;;;;;;;0.00;99.90;;;-1.00;82.59;95712.75;10462864;28;1641;-85
2021/01/08 22:05:41;;;;;;;;;;;0.20;99.90;;;-1.00;82.65;95714.56;10471070;28;1890;-86
2021/01/08 22:10:43;;;;;;;;;;;0.70;99.90;;;-1.00;82.78;95717.19;10461771;28;1499;-88
2021/01/08 22:15:45;;;;;;;;;;;0.70;99.90;;;-1.07;82.28;95711.13;10492753;28;1287;-88
2021/01/08 22:20:47;;;;;;;;;;;0.80;99.90;;;-1.01;83.33;95715.59;10474874;28;1919;-88
2021/01/08 22:25:49;;;;;;;;;;;0.50;99.90;;;-1.01;82.65;95726.94;10496117;28;1955;-84
2021/01/08 22:30:51;;;;;;;;;;;0.00;99.90;;;-1.09;82.85;95724.47;10504260;28;1610;-88
2021/01/08 22:35:53;;;;;;;;;;;1.40;99.90;;;-1.04;83.12;95721.25;10478938;28;1613;-89
2021/01/08 22:40:55;;;;;;;;;;;0.00;99.90;;;-1.19;82.31;95721.44;10480319;28;1191;-88
2021/01/08 22:45:57;;;;;;;;;;;-0.10;99.90;;;-1.04;82.59;95722.06;10479910;28;1991;-86
2021/01/08 22:50:58;;;;;;;;;;;-0.10;99.90;;;-1.00;82.82;95722.47;10455403;28;1374;-86
2021/01/08 22:56:00;;;;;;;;;;;0.00;99.90;;;-0.95;82.93;95720.06;10463891;28;1502;-86
2021/01/08 23:01:05;;;;;;;;;;;0.10;99.90;;;-0.96;82.73;95719.22;10480694;28;1616;-86
2021/01/08 23:06:11;;;;;;;;;;;0.10;99.90;;;-0.94;82.65;95725.13;10475849;28;1540;-87
2021/01/08 23:11:13;;;;;;;;;;;1.50;99.90;;;-1.00;82.59;95718.00;10473497;28;1605;-88
2021/01/08 23:16:15;;;;;;;;;;;0.10;99.90;;;-0.94;82.20;95726.94;10475355;28;1771;-89
2021/01/08 23:21:17;;;;;;;;;;;0.10;99.90;;;-0.93;81.76;95733.84;10479415;28;1890;-87
2021/01/08 23:26:19;;;;;;;;;;;0.10;99.90;;;-0.91;81.20;95737.09;10472788;28;1550;-86
2021/01/08 23:31:20;;;;;;;;;;;0.10;99.90;;;-0.89;81.38;95735.88;10455131;28;1635;-86
2021/01/08 23:36:23;;;;;;;;;;;0.20;99.90;;;-0.91;80.31;95735.25;10478830;28;1340;-87
2021/01/08 23:41:26;;;;;;;;;;;1.40;99.90;;;-0.87;81.69;95738.31;10478029;28;1980;-84
2021/01/08 23:46:27;;;;;;;;;;;1.20;99.90;;;-0.86;79.98;95738.09;10476616;28;1320;-85
2021/01/08 23:51:30;;;;;;;;;;;2.00;99.90;;;-0.86;80.58;95737.28;10459635;28;1622;-87
2021/01/08 23:56:31;;;;;;;;;;;0.20;99.90;;;-0.86;80.47;95748.66;10452373;28;1686;-86
